sensor_id;sensor_type;location;lat;lon;timestamp;pressure;altitude;pressure_sealevel;temperature;humidity
10079;BME280;5078;42.544;22.966;2023-04-19T00:01:49;93465.78;;;8.85;100.00
10079;BME280;5078;42.544;22.966;2023-04-19T00:04:15;93469.44;;;8.84;100.00
10079;BME280;5078;42.544;22.966;2023-04-19T00:06:43;93465.94;;;8.83;100.00
10079;BME280;5078;42.544;22.966;2023-04-19T00:09:10;93461.38;;;8.77;100.00
10079;BME280;5078;42.544;22.966;2023-04-19T00:11:38;93457.91;;;8.77;100.00
10079;BME280;5078;42.544;22.966;2023-04-19T00:14:05;93460.06;;;8.73;100.00
10079;BME280;5078;42.544;22.966;2023-04-19T00:16:31;93460.72;;;8.75;100.00
10079;BME280;5078;42.544;22.966;2023-04-19T00:18:58;93461.06;;;8.72;100.00
10079;BME280;5078;42.544;22.966;2023-04-19T00:21:26;93455.94;;;8.71;100.00
10079;BME280;5078;42.544;22.966;2023-04-19T00:23:52;93454.97;;;8.72;100.00
10079;BME280;5078;42.544;22.966;2023-04-19T00:26:19;93455.28;;;8.77;100.00
10079;BME280;5078;42.544;22.966;2023-04-19T00:28:56;93421.53;;;8.56;100.00
10079;BME280;5078;42.544;22.966;2023-04-19T00:31:22;93442.41;;;8.74;100.00
10079;BME280;5078;42.544;22.966;2023-04-19T00:33:49;93452.13;;;8.73;100.00
10079;BME280;5078;42.544;22.966;2023-04-19T00:36:16;93445.06;;;8.74;100.00
10079;BME280;5078;42.544;22.966;2023-04-19T00:38:43;93452.44;;;8.78;100.00
10079;BME280;5078;42.544;22.966;2023-04-19T00:41:09;93453.75;;;8.82;100.00
10079;BME280;5078;42.544;22.966;2023-04-19T00:43:36;93453.75;;;8.82;100.00
10079;BME280;5078;42.544;22.966;2023-04-19T00:46:04;93455.34;;;8.92;100.00
10079;BME280;5078;42.544;22.966;2023-04-19T00:48:32;93457.91;;;9.00;100.00
10079;BME280;5078;42.544;22.966;2023-04-19T00:51:00;93454.16;;;8.94;100.00
10079;BME280;5078;42.544;22.966;2023-04-19T00:53:28;93447.28;;;9.08;100.00
10079;BME280;5078;42.544;22.966;2023-04-19T00:55:56;93450.50;;;9.18;100.00
10079;BME280;5078;42.544;22.966;2023-04-19T00:58:26;93447.63;;;9.28;100.00
10079;BME280;5078;42.544;22.966;2023-04-19T01:00:55;93454.03;;;9.34;100.00
10079;BME280;5078;42.544;22.966;2023-04-19T01:03:23;93452.09;;;9.27;100.00
10079;BME280;5078;42.544;22.966;2023-04-19T01:05:51;93450.78;;;9.09;100.00
10079;BME280;5078;42.544;22.966;2023-04-19T01:08:18;93444.41;;;9.18;100.00
10079;BME280;5078;42.544;22.966;2023-04-19T01:10:45;93446.50;;;9.22;100.00
10079;BME280;5078;42.544;22.966;2023-04-19T01:13:11;93437.56;;;9.23;100.00
10079;BME280;5078;42.544;22.966;2023-04-19T01:15:38;93438.88;;;9.27;100.00
10079;BME280;5078;42.544;22.966;2023-04-19T01:18:05;93439.75;;;9.20;100.00
10079;BME280;5078;42.544;22.966;2023-04-19T01:20:33;93437.59;;;9.00;100.00
10079;BME280;5078;42.544;22.966;2023-04-19T01:23:01;93413.44;;;9.03;100.00
10079;BME280;5078;42.544;22.966;2023-04-19T01:25:28;93431.91;;;9.12;100.00
10079;BME280;5078;42.544;22.966;2023-04-19T01:27:55;93437.53;;;9.32;100.00
10079;BME280;5078;42.544;22.966;2023-04-19T01:30:22;93431.09;;;9.26;100.00
10079;BME280;5078;42.544;22.966;2023-04-19T01:32:48;93427.47;;;9.27;100.00
10079;BME280;5078;42.544;22.966;2023-04-19T01:35:15;93430.22;;;9.11;100.00
10079;BME280;5078;42.544;22.966;2023-04-19T01:37:42;93437.34;;;8.87;100.00
10079;BME280;5078;42.544;22.966;2023-04-19T01:40:11;93437.22;;;8.80;100.00
10079;BME280;5078;42.544;22.966;2023-04-19T01:42:38;93434.41;;;9.05;100.00
10079;BME280;5078;42.544;22.966;2023-04-19T01:45:05;93429.34;;;9.18;100.00
10079;BME280;5078;42.544;22.966;2023-04-19T01:47:32;93423.16;;;9.11;100.00
10079;BME280;5078;42.544;22.966;2023-04-19T01:49:59;93432.84;;;9.19;100.00
10079;BME280;5078;42.544;22.966;2023-04-19T01:52:26;93431.47;;;9.23;100.00
10079;BME280;5078;42.544;22.966;2023-04-19T01:54:52;93421.41;;;9.18;100.00
10079;BME280;5078;42.544;22.966;2023-04-19T01:57:20;93430.53;;;9.16;100.00
10079;BME280;5078;42.544;22.966;2023-04-19T01:59:47;93428.06;;;9.14;100.00
10079;BME280;5078;42.544;22.966;2023-04-19T02:02:14;93432.72;;;9.12;100.00
10079;BME280;5078;42.544;22.966;2023-04-19T02:04:41;93434.34;;;9.13;100.00
10079;BME280;5078;42.544;22.966;2023-04-19T02:07:08;93433.88;;;9.10;100.00
10079;BME280;5078;42.544;22.966;2023-04-19T02:09:35;93435.00;;;9.15;100.00
10079;BME280;5078;42.544;22.966;2023-04-19T02:12:02;93431.25;;;9.10;100.00
10079;BME280;5078;42.544;22.966;2023-04-19T02:14:30;93428.47;;;9.03;100.00
10079;BME280;5078;42.544;22.966;2023-04-19T02:16:57;93431.13;;;9.03;100.00
10079;BME280;5078;42.544;22.966;2023-04-19T02:19:24;93427.91;;;8.93;100.00
10079;BME280;5078;42.544;22.966;2023-04-19T02:21:50;93434.72;;;9.10;100.00
10079;BME280;5078;42.544;22.966;2023-04-19T02:24:21;93420.03;;;8.84;100.00
10079;BME280;5078;42.544;22.966;2023-04-19T02:26:48;93432.19;;;8.94;100.00
10079;BME280;5078;42.544;22.966;2023-04-19T02:29:15;93426.56;;;8.97;100.00
10079;BME280;5078;42.544;22.966;2023-04-19T02:31:43;93429.25;;;8.89;100.00
10079;BME280;5078;42.544;22.966;2023-04-19T02:34:10;93426.44;;;8.90;100.00
10079;BME280;5078;42.544;22.966;2023-04-19T02:36:37;93437.00;;;8.90;100.00
10079;BME280;5078;42.544;22.966;2023-04-19T02:39:04;93420.63;;;8.95;100.00
10079;BME280;5078;42.544;22.966;2023-04-19T02:41:31;93432.78;;;9.04;100.00
10079;BME280;5078;42.544;22.966;2023-04-19T02:43:57;93431.47;;;9.00;100.00
10079;BME280;5078;42.544;22.966;2023-04-19T02:46:24;93438.03;;;8.81;100.00
10079;BME280;5078;42.544;22.966;2023-04-19T02:48:52;93432.06;;;8.64;100.00
10079;BME280;5078;42.544;22.966;2023-04-19T02:51:19;93428.53;;;8.72;100.00
10079;BME280;5078;42.544;22.966;2023-04-19T02:53:46;93428.78;;;8.62;100.00
10079;BME280;5078;42.544;22.966;2023-04-19T02:56:12;93430.56;;;8.30;100.00
10079;BME280;5078;42.544;22.966;2023-04-19T02:58:39;93426.41;;;8.44;100.00
10079;BME280;5078;42.544;22.966;2023-04-19T03:01:06;93431.94;;;8.57;100.00
10079;BME280;5078;42.544;22.966;2023-04-19T03:03:33;93424.16;;;8.56;100.00
10079;BME280;5078;42.544;22.966;2023-04-19T03:06:01;93432.06;;;8.25;100.00
10079;BME280;5078;42.544;22.966;2023-04-19T03:08:28;93428.63;;;8.24;100.00
10079;BME280;5078;42.544;22.966;2023-04-19T03:10:55;93428.88;;;8.37;100.00
10079;BME280;5078;42.544;22.966;2023-04-19T03:13:21;93430.56;;;8.30;100.00
10079;BME280;5078;42.544;22.966;2023-04-19T03:15:48;93423.69;;;8.52;100.00
10079;BME280;5078;42.544;22.966;2023-04-19T03:18:15;93438.38;;;8.55;100.00
10079;BME280;5078;42.544;22.966;2023-04-19T03:20:42;93431.41;;;8.62;100.00
10079;BME280;5078;42.544;22.966;2023-04-19T03:23:10;93429.44;;;8.56;100.00
10079;BME280;5078;42.544;22.966;2023-04-19T03:25:37;93425.31;;;8.61;100.00
10079;BME280;5078;42.544;22.966;2023-04-19T03:28:03;93423.53;;;8.54;100.00
10079;BME280;5078;42.544;22.966;2023-04-19T03:30:30;93427.47;;;8.58;100.00
10079;BME280;5078;42.544;22.966;2023-04-19T03:32:57;93428.84;;;8.46;100.00
10079;BME280;5078;42.544;22.966;2023-04-19T03:35:24;93427.41;;;8.35;100.00
10079;BME280;5078;42.544;22.966;2023-04-19T03:37:51;93429.38;;;8.33;100.00
10079;BME280;5078;42.544;22.966;2023-04-19T03:40:20;93425.28;;;8.30;100.00
10079;BME280;5078;42.544;22.966;2023-04-19T03:42:46;93431.34;;;8.39;100.00
10079;BME280;5078;42.544;22.966;2023-04-19T03:45:13;93435.50;;;8.41;100.00
10079;BME280;5078;42.544;22.966;2023-04-19T03:47:40;93433.44;;;8.52;100.00
10079;BME280;5078;42.544;22.966;2023-04-19T03:50:07;93428.16;;;8.52;100.00
10079;BME280;5078;42.544;22.966;2023-04-19T03:52:34;93426.19;;;8.54;100.00
10079;BME280;5078;42.544;22.966;2023-04-19T03:55:01;93431.13;;;8.57;100.00
10079;BME280;5078;42.544;22.966;2023-04-19T03:57:29;93421.00;;;8.60;100.00
10079;BME280;5078;42.544;22.966;2023-04-19T03:59:56;93432.06;;;8.64;100.00
10079;BME280;5078;42.544;22.966;2023-04-19T04:02:23;93424.81;;;8.58;100.00
10079;BME280;5078;42.544;22.966;2023-04-19T04:04:52;93429.50;;;8.48;100.00
10079;BME280;5078;42.544;22.966;2023-04-19T04:07:19;93428.47;;;8.57;100.00
10079;BME280;5078;42.544;22.966;2023-04-19T04:09:47;93418.88;;;8.56;100.00
10079;BME280;5078;42.544;22.966;2023-04-19T04:12:14;93425.13;;;8.63;100.00
10079;BME280;5078;42.544;22.966;2023-04-19T04:14:42;93431.22;;;8.63;100.00
10079;BME280;5078;42.544;22.966;2023-04-19T04:17:09;93434.06;;;8.62;100.00
10079;BME280;5078;42.544;22.966;2023-04-19T04:19:35;93432.44;;;8.53;100.00
10079;BME280;5078;42.544;22.966;2023-04-19T04:22:02;93431.47;;;8.54;100.00
10079;BME280;5078;42.544;22.966;2023-04-19T04:24:30;93426.28;;;8.60;100.00
10079;BME280;5078;42.544;22.966;2023-04-19T04:26:57;93419.22;;;8.53;100.00
10079;BME280;5078;42.544;22.966;2023-04-19T04:29:25;93426.50;;;8.51;100.00
10079;BME280;5078;42.544;22.966;2023-04-19T04:31:53;93433.41;;;8.60;100.00
10079;BME280;5078;42.544;22.966;2023-04-19T04:34:21;93431.13;;;8.57;100.00
10079;BME280;5078;42.544;22.966;2023-04-19T04:36:48;93423.75;;;8.36;100.00
10079;BME280;5078;42.544;22.966;2023-04-19T04:39:15;93420.09;;;8.45;100.00
10079;BME280;5078;42.544;22.966;2023-04-19T04:41:42;93425.94;;;8.63;100.00
10079;BME280;5078;42.544;22.966;2023-04-19T04:44:09;93431.00;;;8.73;100.00
10079;BME280;5078;42.544;22.966;2023-04-19T04:46:36;93429.00;;;8.75;100.00
10079;BME280;5078;42.544;22.966;2023-04-19T04:49:04;93421.91;;;8.99;100.00
10079;BME280;5078;42.544;22.966;2023-04-19T04:51:31;93425.47;;;9.06;100.00
10079;BME280;5078;42.544;22.966;2023-04-19T04:53:58;93428.31;;;9.04;100.00
10079;BME280;5078;42.544;22.966;2023-04-19T04:56:25;93425.13;;;9.09;100.00
10079;BME280;5078;42.544;22.966;2023-04-19T04:58:51;93421.31;;;9.12;100.00
10079;BME280;5078;42.544;22.966;2023-04-19T05:01:18;93417.00;;;9.11;100.00
10079;BME280;5078;42.544;22.966;2023-04-19T05:03:45;93420.84;;;9.08;100.00
10079;BME280;5078;42.544;22.966;2023-04-19T05:06:13;93407.09;;;9.13;100.00
10079;BME280;5078;42.544;22.966;2023-04-19T05:08:40;93427.09;;;9.30;100.00
10079;BME280;5078;42.544;22.966;2023-04-19T05:11:07;93425.91;;;9.33;100.00
10079;BME280;5078;42.544;22.966;2023-04-19T05:13:34;93421.47;;;9.48;100.00
10079;BME280;5078;42.544;22.966;2023-04-19T05:16:01;93428.75;;;9.84;100.00
10079;BME280;5078;42.544;22.966;2023-04-19T05:18:27;93435.78;;;9.91;100.00
10079;BME280;5078;42.544;22.966;2023-04-19T05:20:55;93434.06;;;10.13;100.00
10079;BME280;5078;42.544;22.966;2023-04-19T05:23:23;93424.53;;;10.04;100.00
10079;BME280;5078;42.544;22.966;2023-04-19T05:25:50;93430.56;;;9.98;100.00
10079;BME280;5078;42.544;22.966;2023-04-19T05:28:17;93430.94;;;10.10;100.00
10079;BME280;5078;42.544;22.966;2023-04-19T05:30:43;93434.19;;;9.67;100.00
10079;BME280;5078;42.544;22.966;2023-04-19T05:33:10;93430.56;;;9.68;100.00
10079;BME280;5078;42.544;22.966;2023-04-19T05:35:37;93432.84;;;9.86;100.00
10079;BME280;5078;42.544;22.966;2023-04-19T05:38:03;93426.81;;;10.07;100.00
10079;BME280;5078;42.544;22.966;2023-04-19T05:40:32;93427.28;;;9.66;100.00
10079;BME280;5078;42.544;22.966;2023-04-19T05:42:59;93423.19;;;9.93;100.00
10079;BME280;5078;42.544;22.966;2023-04-19T05:45:26;93434.13;;;10.05;100.00
10079;BME280;5078;42.544;22.966;2023-04-19T05:47:53;93431.31;;;9.92;100.00
10079;BME280;5078;42.544;22.966;2023-04-19T05:50:19;93428.56;;;9.85;100.00
10079;BME280;5078;42.544;22.966;2023-04-19T05:52:46;93425.81;;;9.79;100.00
10079;BME280;5078;42.544;22.966;2023-04-19T05:55:13;93421.06;;;9.74;100.00
10079;BME280;5078;42.544;22.966;2023-04-19T05:57:41;93441.91;;;9.92;100.00
10079;BME280;5078;42.544;22.966;2023-04-19T06:00:09;93439.88;;;9.94;100.00
10079;BME280;5078;42.544;22.966;2023-04-19T06:02:36;93434.13;;;9.90;100.00
10079;BME280;5078;42.544;22.966;2023-04-19T06:05:03;93438.59;;;9.90;100.00
10079;BME280;5078;42.544;22.966;2023-04-19T06:07:30;93437.16;;;10.02;100.00
10079;BME280;5078;42.544;22.966;2023-04-19T06:09:57;93444.00;;;9.97;100.00
10079;BME280;5078;42.544;22.966;2023-04-19T06:12:24;93441.34;;;9.97;100.00
10079;BME280;5078;42.544;22.966;2023-04-19T06:14:52;93432.94;;;9.93;100.00
10079;BME280;5078;42.544;22.966;2023-04-19T06:17:19;93438.78;;;10.03;100.00
10079;BME280;5078;42.544;22.966;2023-04-19T06:19:48;93435.41;;;10.09;100.00
10079;BME280;5078;42.544;22.966;2023-04-19T06:22:15;93442.28;;;10.04;100.00
10079;BME280;5078;42.544;22.966;2023-04-19T06:24:43;93440.22;;;10.06;100.00
10079;BME280;5078;42.544;22.966;2023-04-19T06:27:09;93440.06;;;10.37;100.00
10079;BME280;5078;42.544;22.966;2023-04-19T06:29:36;93439.63;;;10.48;100.00
10079;BME280;5078;42.544;22.966;2023-04-19T06:32:04;93440.59;;;10.62;100.00
10079;BME280;5078;42.544;22.966;2023-04-19T06:34:31;93441.19;;;10.79;100.00
10079;BME280;5078;42.544;22.966;2023-04-19T06:36:58;93443.84;;;11.00;100.00
10079;BME280;5078;42.544;22.966;2023-04-19T06:39:25;93448.31;;;10.78;100.00
10079;BME280;5078;42.544;22.966;2023-04-19T06:41:52;93440.06;;;11.10;100.00
10079;BME280;5078;42.544;22.966;2023-04-19T06:44:19;93446.13;;;11.04;100.00
10079;BME280;5078;42.544;22.966;2023-04-19T06:46:46;93450.50;;;11.11;100.00
10079;BME280;5078;42.544;22.966;2023-04-19T06:49:14;93449.34;;;10.99;100.00
10079;BME280;5078;42.544;22.966;2023-04-19T06:51:40;93449.75;;;10.96;100.00
10079;BME280;5078;42.544;22.966;2023-04-19T06:54:07;93447.13;;;10.81;100.00
10079;BME280;5078;42.544;22.966;2023-04-19T06:56:41;93450.03;;;11.08;100.00
10079;BME280;5078;42.544;22.966;2023-04-19T06:59:10;93452.34;;;11.11;100.00
10079;BME280;5078;42.544;22.966;2023-04-19T07:01:37;93457.88;;;11.37;100.00
10079;BME280;5078;42.544;22.966;2023-04-19T07:04:05;93457.44;;;11.34;100.00
10079;BME280;5078;42.544;22.966;2023-04-19T07:06:33;93453.84;;;11.20;100.00
10079;BME280;5078;42.544;22.966;2023-04-19T07:09:00;93459.03;;;11.07;100.00
10079;BME280;5078;42.544;22.966;2023-04-19T07:11:27;93457.94;;;11.01;100.00
10079;BME280;5078;42.544;22.966;2023-04-19T07:13:53;93454.53;;;11.29;100.00
10079;BME280;5078;42.544;22.966;2023-04-19T07:16:20;93454.31;;;11.73;100.00
10079;BME280;5078;42.544;22.966;2023-04-19T07:18:47;93458.84;;;12.36;100.00
10079;BME280;5078;42.544;22.966;2023-04-19T07:21:14;93461.59;;;12.62;100.00
10079;BME280;5078;42.544;22.966;2023-04-19T07:23:42;93451.19;;;12.67;100.00
10079;BME280;5078;42.544;22.966;2023-04-19T07:26:08;93459.69;;;12.91;100.00
10079;BME280;5078;42.544;22.966;2023-04-19T07:28:37;93454.63;;;13.23;100.00
10079;BME280;5078;42.544;22.966;2023-04-19T07:31:04;93456.56;;;13.75;95.63
10079;BME280;5078;42.544;22.966;2023-04-19T07:33:31;93448.38;;;13.84;89.76
10079;BME280;5078;42.544;22.966;2023-04-19T07:35:58;93442.13;;;14.30;87.43
10079;BME280;5078;42.544;22.966;2023-04-19T07:38:24;93445.19;;;14.40;86.77
10079;BME280;5078;42.544;22.966;2023-04-19T07:40:52;93448.31;;;14.17;88.66
10079;BME280;5078;42.544;22.966;2023-04-19T07:43:19;93442.75;;;14.38;84.59
10079;BME280;5078;42.544;22.966;2023-04-19T07:45:46;93444.22;;;14.08;84.82
10079;BME280;5078;42.544;22.966;2023-04-19T07:48:13;93452.25;;;13.68;86.87
10079;BME280;5078;42.544;22.966;2023-04-19T07:50:39;93444.66;;;13.65;89.04
10079;BME280;5078;42.544;22.966;2023-04-19T07:53:06;93428.06;;;13.89;88.05
10079;BME280;5078;42.544;22.966;2023-04-19T07:55:33;93447.50;;;14.23;85.84
10079;BME280;5078;42.544;22.966;2023-04-19T07:58:01;93441.34;;;14.02;82.96
10079;BME280;5078;42.544;22.966;2023-04-19T08:00:28;93442.03;;;14.76;83.72
10079;BME280;5078;42.544;22.966;2023-04-19T08:02:55;93443.22;;;15.25;76.63
10079;BME280;5078;42.544;22.966;2023-04-19T08:05:22;93436.56;;;15.41;74.29
10079;BME280;5078;42.544;22.966;2023-04-19T08:07:50;93439.19;;;15.48;71.20
10079;BME280;5078;42.544;22.966;2023-04-19T08:10:18;93436.06;;;14.81;75.18
10079;BME280;5078;42.544;22.966;2023-04-19T08:12:44;93429.91;;;15.19;70.30
10079;BME280;5078;42.544;22.966;2023-04-19T08:15:13;93432.28;;;15.34;69.59
10079;BME280;5078;42.544;22.966;2023-04-19T08:17:40;93430.78;;;15.44;69.28
10079;BME280;5078;42.544;22.966;2023-04-19T08:20:08;93425.56;;;15.56;68.02
10079;BME280;5078;42.544;22.966;2023-04-19T08:22:36;93427.28;;;15.44;67.52
10079;BME280;5078;42.544;22.966;2023-04-19T08:25:04;93427.06;;;15.14;67.70
10079;BME280;5078;42.544;22.966;2023-04-19T08:27:31;93426.41;;;15.82;65.97
10079;BME280;5078;42.544;22.966;2023-04-19T08:29:58;93427.94;;;15.71;65.20
10079;BME280;5078;42.544;22.966;2023-04-19T08:32:26;93419.44;;;15.81;65.42
10079;BME280;5078;42.544;22.966;2023-04-19T08:34:53;93416.28;;;15.59;68.86
10079;BME280;5078;42.544;22.966;2023-04-19T08:37:19;93428.91;;;15.77;69.51
10079;BME280;5078;42.544;22.966;2023-04-19T08:39:46;93426.16;;;15.58;70.29
10079;BME280;5078;42.544;22.966;2023-04-19T08:42:13;93419.63;;;16.04;66.78
10079;BME280;5078;42.544;22.966;2023-04-19T08:44:40;93426.84;;;15.47;71.23
10079;BME280;5078;42.544;22.966;2023-04-19T08:47:07;93422.81;;;15.38;74.71
10079;BME280;5078;42.544;22.966;2023-04-19T08:49:38;93431.16;;;15.80;71.75
10079;BME280;5078;42.544;22.966;2023-04-19T08:52:05;93422.72;;;15.51;72.78
10079;BME280;5078;42.544;22.966;2023-04-19T08:54:34;93416.88;;;14.97;73.42
10079;BME280;5078;42.544;22.966;2023-04-19T08:57:01;93419.50;;;15.10;76.68
10079;BME280;5078;42.544;22.966;2023-04-19T08:59:27;93423.38;;;14.70;77.06
10079;BME280;5078;42.544;22.966;2023-04-19T09:01:55;93430.19;;;14.52;76.57
10079;BME280;5078;42.544;22.966;2023-04-19T09:04:24;93421.84;;;14.22;77.81
10079;BME280;5078;42.544;22.966;2023-04-19T09:06:53;93417.47;;;14.54;77.67
10079;BME280;5078;42.544;22.966;2023-04-19T09:09:21;93416.25;;;14.43;73.68
10079;BME280;5078;42.544;22.966;2023-04-19T09:11:48;93415.25;;;14.96;70.40
10079;BME280;5078;42.544;22.966;2023-04-19T09:14:19;93414.69;;;15.19;69.07
10079;BME280;5078;42.544;22.966;2023-04-19T09:16:46;93408.97;;;15.16;68.12
10079;BME280;5078;42.544;22.966;2023-04-19T09:19:13;93413.84;;;15.25;68.11
10079;BME280;5078;42.544;22.966;2023-04-19T09:21:41;93415.19;;;15.66;64.93
10079;BME280;5078;42.544;22.966;2023-04-19T09:24:09;93415.97;;;15.48;66.92
10079;BME280;5078;42.544;22.966;2023-04-19T09:26:36;93413.78;;;15.64;68.22
10079;BME280;5078;42.544;22.966;2023-04-19T09:29:04;93417.94;;;14.89;72.45
10079;BME280;5078;42.544;22.966;2023-04-19T09:31:32;93417.81;;;15.16;72.04
10079;BME280;5078;42.544;22.966;2023-04-19T09:34:11;93405.13;;;14.66;72.78
10079;BME280;5078;42.544;22.966;2023-04-19T09:36:39;93421.84;;;14.29;76.68
10079;BME280;5078;42.544;22.966;2023-04-19T09:39:05;93419.63;;;14.77;75.06
10079;BME280;5078;42.544;22.966;2023-04-19T09:41:34;93419.81;;;14.82;73.09
10079;BME280;5078;42.544;22.966;2023-04-19T09:44:09;93421.56;;;15.02;71.64
10079;BME280;5078;42.544;22.966;2023-04-19T09:46:37;93418.16;;;14.88;70.05
10079;BME280;5078;42.544;22.966;2023-04-19T09:49:18;93417.09;;;14.37;73.39
10079;BME280;5078;42.544;22.966;2023-04-19T09:51:46;93420.84;;;14.10;75.41
10079;BME280;5078;42.544;22.966;2023-04-19T09:54:14;93421.84;;;14.22;76.54
10079;BME280;5078;42.544;22.966;2023-04-19T09:56:43;93411.75;;;14.44;75.54
10079;BME280;5078;42.544;22.966;2023-04-19T09:59:10;93417.06;;;14.44;73.56
10079;BME280;5078;42.544;22.966;2023-04-19T10:01:39;93417.69;;;14.39;73.62
10079;BME280;5078;42.544;22.966;2023-04-19T10:04:09;93391.31;;;14.18;74.12
10079;BME280;5078;42.544;22.966;2023-04-19T10:06:37;93412.78;;;14.43;74.92
10079;BME280;5078;42.544;22.966;2023-04-19T10:09:05;93402.31;;;14.48;69.16
10079;BME280;5078;42.544;22.966;2023-04-19T10:11:34;93394.19;;;14.75;69.77
10079;BME280;5078;42.544;22.966;2023-04-19T10:14:09;93389.63;;;15.77;64.88
10079;BME280;5078;42.544;22.966;2023-04-19T10:16:37;93397.56;;;15.90;62.26
10079;BME280;5078;42.544;22.966;2023-04-19T10:19:07;93399.91;;;15.23;66.38
10079;BME280;5078;42.544;22.966;2023-04-19T10:21:34;93394.56;;;15.23;65.56
10079;BME280;5078;42.544;22.966;2023-04-19T10:24:03;93399.56;;;15.13;65.00
10079;BME280;5078;42.544;22.966;2023-04-19T10:26:30;93393.69;;;15.29;64.61
10079;BME280;5078;42.544;22.966;2023-04-19T10:29:53;93391.03;;;14.39;70.46
10079;BME280;5078;42.544;22.966;2023-04-19T10:32:20;93391.72;;;14.80;67.11
10079;BME280;5078;42.544;22.966;2023-04-19T10:34:46;93379.50;;;14.52;66.54
10079;BME280;5078;42.544;22.966;2023-04-19T10:37:13;93385.16;;;15.14;66.40
10079;BME280;5078;42.544;22.966;2023-04-19T10:39:41;93376.38;;;14.69;66.59
10079;BME280;5078;42.544;22.966;2023-04-19T10:42:09;93375.13;;;14.71;65.20
10079;BME280;5078;42.544;22.966;2023-04-19T10:44:38;93364.53;;;14.51;61.74
10079;BME280;5078;42.544;22.966;2023-04-19T10:47:05;93376.97;;;15.09;62.66
10079;BME280;5078;42.544;22.966;2023-04-19T10:49:43;93378.25;;;14.61;60.02
10079;BME280;5078;42.544;22.966;2023-04-19T10:52:25;93378.00;;;14.70;59.59
10079;BME280;5078;42.544;22.966;2023-04-19T10:54:55;93381.34;;;14.97;61.78
10079;BME280;5078;42.544;22.966;2023-04-19T10:57:22;93377.06;;;14.96;62.90
10079;BME280;5078;42.544;22.966;2023-04-19T11:00:19;93376.34;;;15.39;59.82
10079;BME280;5078;42.544;22.966;2023-04-19T11:02:46;93369.91;;;15.21;60.33
10079;BME280;5078;42.544;22.966;2023-04-19T11:05:12;93374.38;;;15.27;60.05
10079;BME280;5078;42.544;22.966;2023-04-19T11:07:41;93369.81;;;15.85;58.25
10079;BME280;5078;42.544;22.966;2023-04-19T11:10:08;93365.69;;;15.89;55.06
10079;BME280;5078;42.544;22.966;2023-04-19T11:12:36;93364.63;;;15.40;55.84
10079;BME280;5078;42.544;22.966;2023-04-19T11:15:06;93357.72;;;15.57;58.11
10079;BME280;5078;42.544;22.966;2023-04-19T11:17:36;93372.44;;;15.66;56.83
10079;BME280;5078;42.544;22.966;2023-04-19T11:20:05;93373.19;;;15.23;55.58
10079;BME280;5078;42.544;22.966;2023-04-19T11:22:35;93369.72;;;14.84;57.99
10079;BME280;5078;42.544;22.966;2023-04-19T11:25:06;93369.56;;;15.11;58.35
10079;BME280;5078;42.544;22.966;2023-04-19T11:27:33;93368.81;;;14.65;59.20
10079;BME280;5078;42.544;22.966;2023-04-19T11:30:04;93376.81;;;14.65;58.92
10079;BME280;5078;42.544;22.966;2023-04-19T11:32:31;93369.72;;;14.84;58.39
10079;BME280;5078;42.544;22.966;2023-04-19T11:35:05;93370.06;;;15.26;58.78
10079;BME280;5078;42.544;22.966;2023-04-19T11:37:33;93378.13;;;15.20;58.90
10079;BME280;5078;42.544;22.966;2023-04-19T11:40:00;93373.06;;;14.73;59.28
10079;BME280;5078;42.544;22.966;2023-04-19T11:42:26;93371.72;;;14.96;59.19
10079;BME280;5078;42.544;22.966;2023-04-19T11:44:53;93375.34;;;15.08;59.06
10079;BME280;5078;42.544;22.966;2023-04-19T11:47:21;93380.97;;;14.93;58.90
10079;BME280;5078;42.544;22.966;2023-04-19T11:49:48;93379.59;;;14.84;60.19
10079;BME280;5078;42.544;22.966;2023-04-19T11:52:21;93368.56;;;14.74;61.94
10079;BME280;5078;42.544;22.966;2023-04-19T11:54:49;93378.81;;;14.70;60.37
10079;BME280;5078;42.544;22.966;2023-04-19T11:57:26;93350.03;;;14.85;61.14
10079;BME280;5078;42.544;22.966;2023-04-19T12:00:04;93363.56;;;14.84;60.85
10079;BME280;5078;42.544;22.966;2023-04-19T12:02:36;93374.84;;;14.28;61.25
10079;BME280;5078;42.544;22.966;2023-04-19T12:05:07;93375.94;;;14.13;63.47
10079;BME280;5078;42.544;22.966;2023-04-19T12:07:36;93367.00;;;14.46;62.98
10079;BME280;5078;42.544;22.966;2023-04-19T12:10:10;93366.34;;;14.64;61.66
10079;BME280;5078;42.544;22.966;2023-04-19T12:12:37;93361.47;;;14.93;60.91
10079;BME280;5078;42.544;22.966;2023-04-19T12:15:05;93364.22;;;15.11;59.38
10079;BME280;5078;42.544;22.966;2023-04-19T12:17:31;93368.00;;;15.28;58.36
10079;BME280;5078;42.544;22.966;2023-04-19T12:19:58;93365.09;;;15.30;57.76
10079;BME280;5078;42.544;22.966;2023-04-19T12:22:25;93364.13;;;15.81;56.48
10079;BME280;5078;42.544;22.966;2023-04-19T12:24:53;93365.66;;;15.70;53.22
10079;BME280;5078;42.544;22.966;2023-04-19T12:27:20;93358.91;;;15.61;54.34
10079;BME280;5078;42.544;22.966;2023-04-19T12:29:47;93362.34;;;15.68;55.10
10079;BME280;5078;42.544;22.966;2023-04-19T12:32:14;93364.22;;;15.11;55.82
10079;BME280;5078;42.544;22.966;2023-04-19T12:34:40;93371.75;;;14.89;57.65
10079;BME280;5078;42.544;22.966;2023-04-19T12:37:07;93357.16;;;14.53;58.48
10079;BME280;5078;42.544;22.966;2023-04-19T12:39:34;93370.50;;;14.53;58.33
10079;BME280;5078;42.544;22.966;2023-04-19T12:42:03;93357.47;;;14.12;60.21
10079;BME280;5078;42.544;22.966;2023-04-19T12:44:33;93364.25;;;14.08;61.67
10079;BME280;5078;42.544;22.966;2023-04-19T12:47:00;93361.63;;;14.59;61.57
10079;BME280;5078;42.544;22.966;2023-04-19T12:49:30;93362.25;;;14.61;60.64
10079;BME280;5078;42.544;22.966;2023-04-19T12:51:56;93360.81;;;14.65;61.16
10079;BME280;5078;42.544;22.966;2023-04-19T12:54:23;93357.00;;;14.35;62.26
10079;BME280;5078;42.544;22.966;2023-04-19T12:56:50;93361.09;;;14.37;61.11
10079;BME280;5078;42.544;22.966;2023-04-19T12:59:18;93366.34;;;14.06;64.81
10079;BME280;5078;42.544;22.966;2023-04-19T13:01:46;93359.25;;;14.38;64.41
10079;BME280;5078;42.544;22.966;2023-04-19T13:04:13;93361.38;;;14.67;63.59